Time;durP1;ratioP1;P1;durP2;ratioP2;P2;SDS_P1;SDS_P2;PMS_P1;PMS_P2;Temp;Humidity;BMP_temperature;BMP_pressure;BME280_temperature;BME280_humidity;BME280_pressure;Samples;Min_cycle;Max_cycle;Signal;HPM_P1;HPM_P2
2021/01/10 00:00:18;;;;;;;42.38;24.45;;;-3.60;98.00;;;;;;5073818;28;20044;-69
2021/01/10 00:02:49;;;;;;;28.98;18.52;;;-3.60;98.00;;;;;;5073254;28;20036;-69
2021/01/10 00:05:20;;;;;;;19.98;11.10;;;-3.50;98.00;;;;;;5072312;28;20035;-70
2021/01/10 00:07:47;;;;;;;23.23;12.73;;;-3.50;98.00;;;;;;5072332;28;20115;-69
2021/01/10 00:10:13;;;;;;;27.17;15.35;;;-3.50;98.00;;;;;;5075147;28;20056;-70
2021/01/10 00:12:39;;;;;;;28.88;17.98;;;-3.50;98.00;;;;;;5077539;28;20060;-69
2021/01/10 00:15:07;;;;;;;13.48;8.88;;;-3.50;98.00;;;;;;5073107;28;20071;-69
2021/01/10 00:17:33;;;;;;;53.00;28.83;;;-3.50;98.00;;;;;;5073363;28;20060;-71
2021/01/10 00:19:59;;;;;;;22.27;14.40;;;-3.50;98.00;;;;;;5077130;28;20452;-69
2021/01/10 00:22:27;;;;;;;19.95;11.75;;;-3.50;98.00;;;;;;5073659;28;20040;-70
2021/01/10 00:24:53;;;;;;;10.65;7.43;;;-3.50;98.00;;;;;;5071548;28;20066;-70
2021/01/10 00:27:19;;;;;;;9.70;7.22;;;-3.50;98.00;;;;;;5072323;28;20475;-70
2021/01/10 00:29:48;;;;;;;19.17;12.77;;;-3.40;98.00;;;;;;5079690;28;20380;-69
2021/01/10 00:32:14;;;;;;;13.90;8.82;;;-3.30;98.00;;;;;;5081315;28;20081;-69
2021/01/10 00:34:41;;;;;;;11.52;7.70;;;-3.30;98.00;;;;;;5078857;28;20104;-68
2021/01/10 00:37:15;;;;;;;12.40;8.13;;;-3.30;98.00;;;;;;5075434;28;20025;-69
2021/01/10 00:39:44;;;;;;;11.18;7.55;;;-3.20;98.00;;;;;;5077644;28;20043;-69
2021/01/10 00:42:12;;;;;;;13.13;8.40;;;-3.20;98.00;;;;;;5076452;28;20039;-69
2021/01/10 00:44:39;;;;;;;15.95;10.02;;;-3.20;98.00;;;;;;5078309;28;20435;-71
2021/01/10 00:47:05;;;;;;;14.88;9.65;;;-3.20;98.00;;;;;;5079114;28;20032;-70
2021/01/10 00:49:31;;;;;;;12.23;8.10;;;-3.10;98.00;;;;;;5082023;28;20047;-69
2021/01/10 00:51:58;;;;;;;15.93;9.52;;;-3.10;98.00;;;;;;5060432;28;20303;-70
2021/01/10 00:54:23;;;;;;;12.70;8.02;;;-3.10;98.00;;;;;;5075779;28;20032;-69
2021/01/10 00:56:49;;;;;;;13.43;9.55;;;-3.10;98.00;;;;;;5076582;28;20028;-69
2021/01/10 00:59:15;;;;;;;15.82;8.35;;;-3.10;98.00;;;;;;5080048;28;20075;-69
2021/01/10 01:01:41;;;;;;;10.02;7.50;;;-3.10;98.00;;;;;;5080559;28;20113;-71
2021/01/10 01:04:08;;;;;;;12.32;8.13;;;-3.10;98.00;;;;;;5078663;28;20103;-69
2021/01/10 01:06:33;;;;;;;14.38;9.75;;;-3.00;98.00;;;;;;5074785;28;20333;-70
2021/01/10 01:08:59;;;;;;;11.80;7.55;;;-3.00;98.00;;;;;;5079510;28;20036;-70
2021/01/10 01:11:33;;;;;;;20.10;12.50;;;-3.00;98.00;;;;;;5078403;28;20153;-70
2021/01/10 01:13:59;;;;;;;11.05;8.35;;;-3.00;98.00;;;;;;5080899;28;20032;-70
2021/01/10 01:16:25;;;;;;;14.73;9.57;;;-3.00;98.00;;;;;;5075949;28;20345;-71
2021/01/10 01:18:51;;;;;;;13.07;8.85;;;-3.00;98.00;;;;;;5077023;28;20040;-70
2021/01/10 01:21:21;;;;;;;11.93;8.52;;;-2.90;98.00;;;;;;5078828;28;20024;-69
2021/01/10 01:23:50;;;;;;;12.75;8.15;;;-2.90;98.00;;;;;;5076625;28;20379;-71
2021/01/10 01:26:16;;;;;;;13.82;7.78;;;-2.90;98.00;;;;;;5079524;28;20783;-70
2021/01/10 01:28:43;;;;;;;12.77;7.80;;;-3.00;98.00;;;;;;5076750;28;20036;-70
2021/01/10 01:31:32;;;;;;;10.93;7.28;;;-2.90;98.00;;;;;;5077917;28;20155;-70
2021/01/10 01:33:58;;;;;;;10.63;7.25;;;-2.90;98.00;;;;;;5079155;28;20024;-69
2021/01/10 01:36:27;;;;;;;11.70;8.13;;;-2.90;98.00;;;;;;5075567;28;20081;-71
2021/01/10 01:38:58;;;;;;;14.55;9.73;;;-2.90;98.00;;;;;;5078974;28;20043;-70
2021/01/10 01:41:25;;;;;;;11.77;8.35;;;-3.00;98.00;;;;;;5085963;28;20020;-71
2021/01/10 01:43:53;;;;;;;15.82;9.40;;;-2.90;98.00;;;;;;5084648;28;20137;-71
2021/01/10 01:46:29;;;;;;;15.20;10.18;;;-2.90;98.00;;;;;;5076332;28;20033;-69
2021/01/10 01:48:59;;;;;;;12.60;8.18;;;-2.80;98.00;;;;;;5077381;28;20383;-70
2021/01/10 01:51:25;;;;;;;17.55;9.55;;;-2.90;98.00;;;;;;5075067;28;20426;-71
2021/01/10 01:53:52;;;;;;;13.57;8.95;;;-2.80;98.00;;;;;;5079290;28;20028;-68
2021/01/10 01:56:18;;;;;;;16.70;10.55;;;-2.80;98.00;;;;;;5077581;28;20134;-70
2021/01/10 01:59:01;;;;;;;13.32;8.52;;;-2.90;98.00;;;;;;5078792;28;20025;-70
2021/01/10 02:01:29;;;;;;;15.13;9.63;;;-2.90;98.00;;;;;;5078152;28;20085;-71
2021/01/10 02:04:21;;;;;;;19.58;11.63;;;-2.90;98.00;;;;;;5080148;28;20039;-71
2021/01/10 02:06:58;;;;;;;21.38;11.82;;;-2.90;98.00;;;;;;5081781;28;20605;-70
2021/01/10 02:09:25;;;;;;;17.15;11.98;;;-2.90;98.00;;;;;;5084801;28;20024;-71
2021/01/10 02:11:53;;;;;;;12.88;8.32;;;-2.90;98.00;;;;;;5082888;28;20023;-69
2021/01/10 02:14:26;;;;;;;16.95;10.10;;;-2.90;98.00;;;;;;5080479;28;20028;-70
2021/01/10 02:16:55;;;;;;;15.73;9.97;;;-2.90;98.00;;;;;;5082519;28;20036;-70
2021/01/10 02:19:42;;;;;;;15.43;8.88;;;-2.90;98.00;;;;;;5081593;28;20358;-70
2021/01/10 02:22:11;;;;;;;15.02;9.95;;;-2.90;98.00;;;;;;5081529;28;20021;-71
2021/01/10 02:24:42;;;;;;;18.15;10.85;;;-2.90;98.00;;;;;;5083433;28;20036;-69
2021/01/10 02:27:08;;;;;;;20.50;13.23;;;-2.90;98.00;;;;;;5079649;28;20453;-70
2021/01/10 02:29:36;;;;;;;19.65;13.18;;;-2.90;98.00;;;;;;5082118;28;20032;-71
2021/01/10 02:32:06;;;;;;;24.13;13.68;;;-2.90;98.00;;;;;;5082571;28;20067;-69
2021/01/10 02:34:34;;;;;;;23.05;13.75;;;-2.90;98.00;;;;;;5081081;28;20117;-70
2021/01/10 02:37:31;;;;;;;20.55;11.30;;;-2.90;98.00;;;;;;5082261;28;20036;-70
2021/01/10 02:40:35;;;;;;;13.75;8.82;;;-3.00;98.00;;;;;;5079594;28;21552;-69
2021/01/10 02:43:09;;;;;;;13.85;10.07;;;-2.90;98.00;;;;;;5062390;28;20305;-70
2021/01/10 02:45:37;;;;;;;14.15;9.20;;;-2.80;98.00;;;;;;5081513;28;20106;-69
2021/01/10 02:48:02;;;;;;;12.50;9.05;;;-2.80;98.00;;;;;;5080279;28;20033;-69
2021/01/10 02:50:30;;;;;;;14.60;9.63;;;-2.80;98.00;;;;;;5080875;28;20051;-69
2021/01/10 02:52:56;;;;;;;15.77;10.07;;;-2.80;98.00;;;;;;5079659;28;20026;-70
2021/01/10 02:55:24;;;;;;;15.80;9.77;;;-2.80;98.00;;;;;;5083770;28;20077;-69
2021/01/10 02:57:59;;;;;;;12.85;8.43;;;-2.70;98.00;;;;;;5079579;28;20054;-71
2021/01/10 03:00:26;;;;;;;13.63;8.82;;;-2.80;98.00;;;;;;5082145;28;20355;-71
2021/01/10 03:02:54;;;;;;;11.75;8.70;;;-2.70;98.00;;;;;;5079764;28;20032;-71
2021/01/10 03:05:20;;;;;;;13.73;9.00;;;-2.70;98.00;;;;;;5078550;28;20365;-70
2021/01/10 03:07:49;;;;;;;17.40;9.48;;;-2.70;98.00;;;;;;5082108;28;20036;-71
2021/01/10 03:10:19;;;;;;;16.60;10.10;;;-2.80;98.00;;;;;;5083094;28;20029;-71
2021/01/10 03:12:45;;;;;;;17.38;11.52;;;-2.80;98.00;;;;;;5082873;28;20376;-71
2021/01/10 03:15:14;;;;;;;19.58;10.98;;;-2.70;98.00;;;;;;5079856;28;20016;-71
2021/01/10 03:17:49;;;;;;;16.85;10.65;;;-2.70;98.00;;;;;;5077754;28;20082;-69
2021/01/10 03:20:17;;;;;;;22.67;11.90;;;-2.80;98.00;;;;;;5082510;28;20020;-70
2021/01/10 03:22:45;;;;;;;13.70;9.57;;;-2.70;98.00;;;;;;5079786;28;20024;-70
2021/01/10 03:25:13;;;;;;;14.00;8.63;;;-2.70;98.00;;;;;;5084990;28;20077;-71
2021/01/10 03:27:39;;;;;;;12.73;7.70;;;-2.70;98.00;;;;;;5078149;28;20029;-69
2021/01/10 03:30:17;;;;;;;10.35;7.55;;;-2.70;97.80;;;;;;5081060;28;20378;-71
2021/01/10 03:32:44;;;;;;;10.90;7.65;;;-2.70;97.60;;;;;;5080620;28;20024;-71
2021/01/10 03:35:12;;;;;;;15.38;10.23;;;-2.70;97.80;;;;;;5085195;28;20428;-69
2021/01/10 03:37:38;;;;;;;21.60;14.63;;;-2.70;98.00;;;;;;5077266;28;20120;-70
2021/01/10 03:40:04;;;;;;;19.83;13.45;;;-2.70;98.00;;;;;;5077016;28;20108;-70
2021/01/10 03:42:30;;;;;;;13.20;8.93;;;-2.80;98.00;;;;;;5082688;28;20113;-70
2021/01/10 03:44:56;;;;;;;10.00;6.93;;;-2.80;98.00;;;;;;5078427;28;20086;-70
2021/01/10 03:47:22;;;;;;;21.40;11.25;;;-2.80;98.00;;;;;;5079215;28;20090;-70
2021/01/10 03:49:47;;;;;;;12.10;8.32;;;-2.80;98.00;;;;;;5080679;28;20052;-69
2021/01/10 03:52:19;;;;;;;13.15;7.40;;;-2.80;98.00;;;;;;5079562;28;20024;-69
2021/01/10 03:54:47;;;;;;;13.23;7.20;;;-2.80;98.00;;;;;;5079823;28;20028;-71
2021/01/10 03:57:15;;;;;;;9.75;6.57;;;-2.80;97.90;;;;;;5082104;28;20333;-69
2021/01/10 03:59:41;;;;;;;12.25;8.00;;;-2.80;97.30;;;;;;5078850;28;20032;-69
2021/01/10 04:02:06;;;;;;;11.18;7.75;;;-2.80;97.30;;;;;;5081022;28;20476;-69
2021/01/10 04:04:32;;;;;;;12.43;7.45;;;-2.80;96.90;;;;;;5080712;28;20409;-69
2021/01/10 04:07:00;;;;;;;12.57;7.45;;;-2.80;97.20;;;;;;5077649;28;20024;-70
2021/01/10 04:09:26;;;;;;;12.35;7.85;;;-2.70;96.80;;;;;;5082443;28;20032;-69
2021/01/10 04:11:51;;;;;;;11.05;7.15;;;-2.70;96.70;;;;;;5080747;28;20027;-70
2021/01/10 04:14:17;;;;;;;11.45;7.50;;;-2.70;96.90;;;;;;5080173;28;20043;-69
2021/01/10 04:16:51;;;;;;;10.50;6.60;;;-2.80;97.00;;;;;;5077633;28;20047;-69
2021/01/10 04:19:16;;;;;;;11.35;7.05;;;-2.80;96.20;;;;;;5080301;28;20030;-69
2021/01/10 04:21:42;;;;;;;10.95;7.20;;;-2.80;96.20;;;;;;5079709;28;20036;-69
2021/01/10 04:24:08;;;;;;;9.65;7.32;;;-2.90;96.80;;;;;;5083854;28;20036;-69
2021/01/10 04:26:38;;;;;;;10.13;6.63;;;-2.90;96.60;;;;;;5077149;28;20029;-69
2021/01/10 04:29:04;;;;;;;9.52;6.25;;;-2.90;96.50;;;;;;5079669;28;20028;-70
2021/01/10 04:31:30;;;;;;;9.38;6.25;;;-2.90;96.50;;;;;;5078153;28;20028;-69
2021/01/10 04:33:56;;;;;;;9.18;6.40;;;-2.90;96.50;;;;;;5077423;28;20396;-70
2021/01/10 04:36:21;;;;;;;11.23;7.07;;;-2.90;96.60;;;;;;5081685;28;20103;-69
2021/01/10 04:38:50;;;;;;;10.40;6.97;;;-2.90;96.70;;;;;;5083821;28;20035;-69
2021/01/10 04:41:17;;;;;;;8.85;6.72;;;-2.90;96.50;;;;;;5079549;28;20391;-69
2021/01/10 04:43:42;;;;;;;11.05;6.68;;;-3.00;96.50;;;;;;5079429;28;20341;-69
2021/01/10 04:46:12;;;;;;;9.68;6.70;;;-3.00;96.50;;;;;;5078776;28;20036;-70
2021/01/10 04:48:39;;;;;;;10.57;6.90;;;-3.00;96.90;;;;;;5078411;28;20066;-69
2021/01/10 04:51:05;;;;;;;10.88;6.82;;;-2.90;96.70;;;;;;5080081;28;20037;-69
2021/01/10 04:53:39;;;;;;;10.75;6.82;;;-2.90;96.40;;;;;;5080942;28;20032;-69
2021/01/10 04:56:07;;;;;;;10.30;7.00;;;-2.90;96.40;;;;;;5093947;28;20040;-70
2021/01/10 04:58:35;;;;;;;11.27;7.50;;;-3.00;96.40;;;;;;5081270;28;20047;-69
2021/01/10 05:01:02;;;;;;;10.50;7.07;;;-3.00;96.80;;;;;;5077527;28;20032;-69
2021/01/10 05:03:31;;;;;;;8.32;5.70;;;-3.00;96.70;;;;;;5081411;28;20491;-70
2021/01/10 05:05:57;;;;;;;9.88;7.10;;;-3.00;96.80;;;;;;5083304;28;20020;-69
2021/01/10 05:08:25;;;;;;;10.68;6.95;;;-3.00;97.00;;;;;;5075682;28;20090;-69
2021/01/10 05:10:51;;;;;;;11.57;6.70;;;-3.00;96.50;;;;;;5078957;28;20063;-69
2021/01/10 05:13:17;;;;;;;9.77;6.47;;;-3.00;96.50;;;;;;5084439;28;20039;-69
2021/01/10 05:15:55;;;;;;;9.93;6.40;;;-3.00;96.00;;;;;;5078677;28;20028;-69
2021/01/10 05:18:21;;;;;;;10.38;6.78;;;-3.00;96.10;;;;;;5076852;28;20046;-70
2021/01/10 05:20:47;;;;;;;9.90;6.22;;;-3.00;96.30;;;;;;5081212;28;20107;-69
2021/01/10 05:23:13;;;;;;;10.82;6.47;;;-3.00;96.50;;;;;;5076596;28;20131;-69
2021/01/10 05:25:40;;;;;;;10.02;6.63;;;-3.10;96.30;;;;;;5075229;28;20039;-69
2021/01/10 05:28:10;;;;;;;10.07;6.00;;;-3.10;96.70;;;;;;5084494;28;20028;-70
2021/01/10 05:30:35;;;;;;;7.95;5.45;;;-3.10;96.70;;;;;;5080008;28;20027;-69
2021/01/10 05:33:18;;;;;;;11.45;6.70;;;-3.10;96.80;;;;;;5081092;28;20020;-69
2021/01/10 05:35:55;;;;;;;10.77;6.70;;;-3.10;96.80;;;;;;5084084;28;20028;-69
2021/01/10 05:38:37;;;;;;;8.90;6.03;;;-3.10;96.20;;;;;;5079789;28;20033;-71
2021/01/10 05:41:10;;;;;;;7.97;5.38;;;-3.10;96.20;;;;;;5078723;28;20107;-69
2021/01/10 05:44:01;;;;;;;9.05;6.55;;;-3.10;96.20;;;;;;5084045;28;20552;-69
2021/01/10 05:46:31;;;;;;;11.20;7.30;;;-3.10;96.10;;;;;;5080259;28;20353;-68
2021/01/10 05:49:04;;;;;;;12.73;7.43;;;-3.10;95.80;;;;;;5085917;28;20191;-69
2021/01/10 05:51:31;;;;;;;9.30;6.57;;;-3.10;95.60;;;;;;5085141;28;20066;-71
2021/01/10 05:53:57;;;;;;;9.82;5.97;;;-3.10;95.90;;;;;;5081906;28;20059;-71
2021/01/10 05:56:25;;;;;;;11.70;7.38;;;-3.10;96.10;;;;;;5086964;28;20425;-71
2021/01/10 05:58:57;;;;;;;10.95;6.97;;;-3.10;96.30;;;;;;5078715;28;20033;-70
2021/01/10 06:01:24;;;;;;;9.00;5.97;;;-3.10;95.90;;;;;;5083934;28;20040;-71
2021/01/10 06:03:52;;;;;;;11.05;7.05;;;-3.10;95.80;;;;;;5081459;28;20099;-71
2021/01/10 06:06:21;;;;;;;9.80;6.65;;;-3.10;96.20;;;;;;5082411;28;20032;-71
2021/01/10 06:08:47;;;;;;;12.10;7.45;;;-3.10;95.80;;;;;;5080300;28;20379;-71
2021/01/10 06:11:26;;;;;;;11.27;6.80;;;-3.10;96.00;;;;;;5083064;28;20024;-71
2021/01/10 06:14:00;;;;;;;15.40;6.72;;;-3.10;96.10;;;;;;5082036;28;20066;-69
2021/01/10 06:16:29;;;;;;;13.38;7.70;;;-3.10;95.90;;;;;;5081213;28;20024;-70
2021/01/10 06:19:02;;;;;;;10.00;5.90;;;-3.00;95.80;;;;;;5083488;28;20028;-69
2021/01/10 06:21:29;;;;;;;9.82;6.07;;;-3.00;95.80;;;;;;5081865;28;20040;-71
2021/01/10 06:24:02;;;;;;;9.68;5.93;;;-3.10;95.50;;;;;;5080124;28;20035;-70
2021/01/10 06:26:30;;;;;;;12.18;8.15;;;-3.00;95.80;;;;;;5084734;28;20033;-70
2021/01/10 06:29:05;;;;;;;13.23;7.38;;;-3.00;95.60;;;;;;5084068;28;20023;-71
2021/01/10 06:31:32;;;;;;;15.68;9.45;;;-3.00;96.00;;;;;;5085283;28;20028;-69
2021/01/10 06:34:07;;;;;;;13.88;8.38;;;-3.00;95.90;;;;;;5081099;28;20055;-69
2021/01/10 06:36:38;;;;;;;13.18;8.30;;;-3.00;95.80;;;;;;5079194;28;20426;-69
2021/01/10 06:39:18;;;;;;;15.52;11.13;;;-3.00;95.90;;;;;;5083383;28;20046;-69
2021/01/10 06:41:58;;;;;;;9.73;6.40;;;-3.00;95.80;;;;;;5082573;28;20028;-70
2021/01/10 06:44:24;;;;;;;8.35;5.75;;;-3.00;95.70;;;;;;5080725;28;20037;-69
2021/01/10 06:46:54;;;;;;;10.43;6.55;;;-3.00;95.90;;;;;;5081186;28;20491;-69
2021/01/10 06:49:21;;;;;;;8.38;5.60;;;-3.00;95.70;;;;;;5082686;28;20456;-70
2021/01/10 06:51:54;;;;;;;9.32;5.75;;;-3.00;95.80;;;;;;5079815;28;20025;-69
2021/01/10 06:54:20;;;;;;;13.02;8.23;;;-3.00;95.90;;;;;;5082581;28;20028;-69
2021/01/10 06:56:50;;;;;;;11.15;7.20;;;-3.00;95.70;;;;;;5078942;28;20372;-69
2021/01/10 06:59:26;;;;;;;9.23;6.57;;;-3.00;95.70;;;;;;5080830;28;20421;-69
2021/01/10 07:01:51;;;;;;;9.68;6.28;;;-3.00;95.50;;;;;;5082855;28;20040;-70
2021/01/10 07:04:37;;;;;;;19.50;12.05;;;-3.00;95.60;;;;;;5086073;28;20032;-71
2021/01/10 07:07:03;;;;;;;16.15;10.60;;;-3.00;95.70;;;;;;5079823;28;20310;-69
2021/01/10 07:09:54;;;;;;;9.55;6.13;;;-3.00;95.90;;;;;;5081013;28;20032;-70
2021/01/10 07:12:25;;;;;;;10.27;7.32;;;-3.00;96.10;;;;;;5083405;28;20024;-69
2021/01/10 07:14:51;;;;;;;29.58;16.83;;;-3.00;96.40;;;;;;5079651;28;20024;-69
2021/01/10 07:17:18;;;;;;;15.77;10.32;;;-3.00;96.50;;;;;;5083406;28;20048;-69
2021/01/10 07:19:49;;;;;;;11.63;7.40;;;-2.90;96.60;;;;;;5080254;28;20032;-69
2021/01/10 07:22:25;;;;;;;12.35;8.52;;;-2.90;96.50;;;;;;5077446;28;20051;-69
2021/01/10 07:24:50;;;;;;;11.52;7.25;;;-3.00;96.70;;;;;;5082762;28;20053;-69
2021/01/10 07:27:35;;;;;;;8.65;5.93;;;-2.90;96.80;;;;;;5083262;28;20113;-69
2021/01/10 07:30:24;;;;;;;11.15;6.63;;;-2.90;96.70;;;;;;5079768;28;20035;-70
2021/01/10 07:32:53;;;;;;;11.63;7.10;;;-2.80;96.70;;;;;;5085493;28;20082;-70
2021/01/10 07:35:22;;;;;;;11.93;6.75;;;-2.80;96.50;;;;;;5077063;28;20033;-69
2021/01/10 07:37:56;;;;;;;9.63;6.72;;;-2.90;96.30;;;;;;5077411;28;20039;-69
2021/01/10 07:40:24;;;;;;;10.18;7.45;;;-2.80;96.30;;;;;;5086174;28;20024;-70
2021/01/10 07:43:01;;;;;;;14.30;10.13;;;-2.80;96.50;;;;;;5081806;28;20035;-71
2021/01/10 07:45:39;;;;;;;16.02;10.40;;;-2.80;96.40;;;;;;5077000;28;20024;-69
2021/01/10 07:48:06;;;;;;;9.73;6.80;;;-2.70;96.50;;;;;;5076462;28;20024;-70
2021/01/10 07:50:32;;;;;;;9.00;6.50;;;-2.70;96.20;;;;;;5082897;28;20439;-69
2021/01/10 07:52:58;;;;;;;9.88;7.00;;;-2.70;96.10;;;;;;5094629;28;20020;-69
2021/01/10 07:55:27;;;;;;;12.65;9.40;;;-2.60;96.00;;;;;;5080548;28;20377;-69
2021/01/10 07:58:12;;;;;;;23.10;13.07;;;-2.60;96.20;;;;;;5086664;28;20028;-69
2021/01/10 08:00:47;;;;;;;11.95;8.00;;;-2.60;96.60;;;;;;5081124;28;20029;-69
2021/01/10 08:03:33;;;;;;;10.85;7.18;;;-2.60;96.50;;;;;;5084696;28;20036;-69
2021/01/10 08:06:04;;;;;;;8.80;6.07;;;-2.50;95.80;;;;;;5084562;28;20160;-71
2021/01/10 08:08:40;;;;;;;11.35;6.68;;;-2.40;95.70;;;;;;5086200;28;20027;-69
2021/01/10 08:11:07;;;;;;;31.42;17.02;;;-2.40;95.60;;;;;;5080671;28;20024;-70
2021/01/10 08:13:43;;;;;;;74.53;28.92;;;-2.40;95.50;;;;;;5076379;28;20347;-71
2021/01/10 08:16:28;;;;;;;15.60;9.82;;;-2.40;95.30;;;;;;5082647;28;20429;-70
2021/01/10 08:18:54;;;;;;;33.40;14.60;;;-2.30;95.60;;;;;;5077292;28;20049;-70
2021/01/10 08:21:19;;;;;;;57.53;25.10;;;-2.30;95.10;;;;;;5086602;28;20032;-70
2021/01/10 08:23:54;;;;;;;18.95;10.80;;;-2.20;94.90;;;;;;5083222;28;20024;-69
2021/01/10 08:26:23;;;;;;;7.68;5.95;;;-2.20;95.10;;;;;;5087345;28;20069;-70
2021/01/10 08:28:54;;;;;;;9.45;6.50;;;-2.10;95.00;;;;;;5076337;28;20028;-69
2021/01/10 08:31:23;;;;;;;9.02;6.65;;;-2.20;94.90;;;;;;5081502;28;20321;-69
2021/01/10 08:34:01;;;;;;;10.30;6.82;;;-2.00;95.10;;;;;;5089272;28;20020;-68
2021/01/10 08:36:30;;;;;;;10.13;7.15;;;-1.90;94.50;;;;;;5075568;28;20154;-69
2021/01/10 08:39:13;;;;;;;11.10;7.05;;;-1.70;94.00;;;;;;5076188;28;20508;-69
2021/01/10 08:41:47;;;;;;;8.68;5.95;;;-1.60;94.00;;;;;;5088838;28;20025;-71
2021/01/10 08:44:25;;;;;;;9.65;6.75;;;-1.70;93.80;;;;;;5075623;28;20021;-69
2021/01/10 08:46:52;;;;;;;12.40;6.57;;;-1.50;94.00;;;;;;5075383;28;20031;-71
2021/01/10 08:49:25;;;;;;;9.63;6.55;;;-1.50;93.30;;;;;;5075405;28;20437;-70
2021/01/10 08:51:53;;;;;;;10.73;6.68;;;-1.50;92.70;;;;;;5083302;28;20145;-69
2021/01/10 08:54:21;;;;;;;9.82;6.57;;;-1.40;92.10;;;;;;5093484;28;20366;-70
2021/01/10 08:56:52;;;;;;;13.55;7.50;;;-1.40;91.80;;;;;;5085386;28;20023;-69
2021/01/10 08:59:19;;;;;;;11.65;8.07;;;-1.20;92.10;;;;;;5082485;28;20033;-70
2021/01/10 09:01:48;;;;;;;11.98;8.18;;;-1.20;91.50;;;;;;5079256;28;20020;-70
2021/01/10 09:04:15;;;;;;;10.40;7.65;;;-1.30;91.80;;;;;;5089911;28;20107;-69
2021/01/10 09:06:41;;;;;;;10.88;7.55;;;-1.20;91.80;;;;;;5094035;28;20023;-70
2021/01/10 09:09:19;;;;;;;11.05;7.28;;;-1.10;91.40;;;;;;5092794;28;20082;-68
2021/01/10 09:11:53;;;;;;;65.20;23.80;;;-1.20;90.50;;;;;;5093364;28;20085;-69
2021/01/10 09:14:21;;;;;;;9.70;6.85;;;-1.30;91.30;;;;;;5079142;28;20024;-70
2021/01/10 09:16:48;;;;;;;15.57;8.13;;;-1.20;90.70;;;;;;5077056;28;20052;-69
2021/01/10 09:19:17;;;;;;;9.82;6.60;;;-1.10;91.20;;;;;;5089097;28;20024;-69
2021/01/10 09:21:47;;;;;;;9.57;6.60;;;-1.10;90.80;;;;;;5090802;28;20365;-70
2021/01/10 09:24:17;;;;;;;16.45;10.63;;;-1.30;91.10;;;;;;5076248;28;20033;-69
2021/01/10 09:26:42;;;;;;;16.48;12.00;;;-1.30;91.30;;;;;;5074266;28;20020;-69
2021/01/10 09:29:19;;;;;;;14.30;10.40;;;-1.20;91.80;;;;;;5076669;28;20322;-70
2021/01/10 09:31:49;;;;;;;11.98;7.50;;;-1.10;91.60;;;;;;5075718;28;20020;-69
2021/01/10 09:34:23;;;;;;;12.75;7.57;;;-1.10;91.20;;;;;;5074044;28;20039;-70
2021/01/10 09:37:01;;;;;;;9.50;6.65;;;-1.20;91.00;;;;;;5086854;28;20111;-69
2021/01/10 09:40:09;;;;;;;9.73;6.38;;;-1.20;90.90;;;;;;5080699;28;20315;-68
2021/01/10 09:42:47;;;;;;;12.68;7.53;;;-1.30;91.10;;;;;;5083527;28;20060;-70
2021/01/10 09:45:32;;;;;;;13.65;9.27;;;-1.00;90.80;;;;;;5083049;28;20028;-69
2021/01/10 09:47:59;;;;;;;13.50;9.25;;;-1.00;90.10;;;;;;5085859;28;20034;-69
2021/01/10 09:50:25;;;;;;;11.43;7.45;;;-0.90;90.20;;;;;;5094717;28;20439;-69
2021/01/10 09:52:52;;;;;;;13.57;9.23;;;-0.60;90.20;;;;;;5083034;28;20103;-69
2021/01/10 09:55:25;;;;;;;28.30;14.27;;;-0.10;89.30;;;;;;5085326;28;20090;-69
2021/01/10 09:57:52;;;;;;;12.13;7.22;;;0.00;87.70;;;;;;5091321;28;20028;-69
2021/01/10 10:00:18;;;;;;;9.98;6.35;;;-0.10;87.80;;;;;;5093826;28;20051;-69
2021/01/10 10:02:47;;;;;;;11.10;7.50;;;-0.20;86.90;;;;;;5078140;28;20354;-68
2021/01/10 10:05:25;;;;;;;11.68;6.88;;;-0.40;87.30;;;;;;5083485;28;20028;-68
2021/01/10 10:08:00;;;;;;;10.38;7.10;;;-0.50;87.60;;;;;;5081593;28;20380;-68
2021/01/10 10:10:31;;;;;;;12.75;8.32;;;-0.60;87.90;;;;;;5075180;28;20024;-69
2021/01/10 10:13:04;;;;;;;10.32;7.15;;;-0.30;88.60;;;;;;5076166;28;20052;-68
2021/01/10 10:15:45;;;;;;;17.58;10.63;;;0.00;87.60;;;;;;5075392;28;20028;-70
2021/01/10 10:18:19;;;;;;;11.05;6.95;;;0.00;86.70;;;;;;5087239;28;20066;-69
2021/01/10 10:20:48;;;;;;;;;;;-0.30;86.30;;;;;;5094341;28;20039;-68
2021/01/10 10:23:15;;;;;;;9.57;6.70;;;-0.20;87.30;;;;;;5080505;28;19919;-68
2021/01/10 10:25:42;;;;;;;10.30;6.40;;;-0.20;86.80;;;;;;5080016;28;20313;-69
2021/01/10 10:28:08;;;;;;;9.75;6.25;;;-0.10;86.60;;;;;;5087829;28;20081;-68
2021/01/10 10:30:37;;;;;;;10.23;6.47;;;-0.20;86.10;;;;;;5095492;28;20421;-68
2021/01/10 10:33:04;;;;;;;8.60;5.97;;;-0.10;86.40;;;;;;5080205;28;20021;-70
2021/01/10 10:35:30;;;;;;;9.32;6.05;;;0.30;86.40;;;;;;5081331;28;20020;-70
2021/01/10 10:37:56;;;;;;;10.75;7.13;;;1.00;84.00;;;;;;5086816;28;20318;-68
2021/01/10 10:40:22;;;;;;;11.80;6.93;;;1.20;82.20;;;;;;5085729;28;20083;-69
2021/01/10 10:42:48;;;;;;;11.75;7.20;;;0.60;82.70;;;;;;5083472;28;20028;-71
2021/01/10 10:45:15;;;;;;;12.77;7.65;;;0.10;84.40;;;;;;5094010;28;20035;-69
2021/01/10 10:47:41;;;;;;;16.40;8.07;;;-0.10;85.30;;;;;;5086140;28;20024;-68
2021/01/10 10:50:10;;;;;;;12.57;8.80;;;-0.10;85.90;;;;;;5081732;28;20020;-69
2021/01/10 10:52:36;;;;;;;13.32;8.85;;;-0.40;85.90;;;;;;5078192;28;20048;-70
2021/01/10 10:55:06;;;;;;;11.25;7.43;;;-0.60;86.40;;;;;;5079588;28;20060;-70
2021/01/10 10:57:31;;;;;;;11.15;8.05;;;-0.60;87.30;;;;;;5087728;28;20044;-69
2021/01/10 10:59:57;;;;;;;12.07;7.40;;;0.00;86.70;;;;;;5083785;28;20060;-69
2021/01/10 11:02:23;;;;;;;12.73;7.38;;;0.60;84.50;;;;;;5078733;28;20021;-69
2021/01/10 11:04:49;;;;;;;10.43;6.68;;;1.30;84.30;;;;;;5083119;28;20024;-69
2021/01/10 11:07:15;;;;;;;10.40;6.35;;;1.50;80.90;;;;;;5092235;28;20595;-68
2021/01/10 11:09:50;;;;;;;10.18;6.15;;;1.70;80.50;;;;;;5086777;28;20051;-69
2021/01/10 11:12:18;;;;;;;11.23;6.55;;;1.50;80.30;;;;;;5087537;28;20020;-69
2021/01/10 11:14:43;;;;;;;9.45;6.45;;;0.70;81.10;;;;;;5081976;28;20029;-69
2021/01/10 11:17:11;;;;;;;10.88;6.75;;;0.10;83.00;;;;;;5085091;28;20053;-69
2021/01/10 11:19:37;;;;;;;13.02;8.48;;;-0.30;85.00;;;;;;5088135;28;20032;-68
2021/01/10 11:22:06;;;;;;;13.80;7.38;;;-0.20;85.80;;;;;;5083734;28;20031;-68
2021/01/10 11:24:32;;;;;;;15.27;9.23;;;-0.30;85.40;;;;;;5089501;28;20059;-70
2021/01/10 11:26:58;;;;;;;13.68;7.70;;;0.10;85.50;;;;;;5077698;28;20040;-68
2021/01/10 11:29:25;;;;;;;12.40;7.85;;;0.20;84.70;;;;;;5092150;28;20039;-67
2021/01/10 11:31:51;;;;;;;12.52;7.35;;;0.10;85.20;;;;;;5087876;28;20021;-66
2021/01/10 11:34:20;;;;;;;13.57;7.40;;;0.40;84.40;;;;;;5083796;28;20012;-66
2021/01/10 11:36:48;;;;;;;14.50;7.20;;;1.10;83.20;;;;;;5078623;28;20027;-66
2021/01/10 11:39:15;;;;;;;9.68;5.85;;;1.60;81.90;;;;;;5079520;28;20357;-67
2021/01/10 11:41:48;;;;;;;10.07;6.07;;;2.80;79.50;;;;;;5094973;28;20027;-67
2021/01/10 11:44:15;;;;;;;13.35;6.38;;;4.10;75.90;;;;;;5088751;28;20021;-67
2021/01/10 11:46:43;;;;;;;9.05;5.70;;;5.20;73.00;;;;;;5091768;28;20016;-68
2021/01/10 11:49:10;;;;;;;9.13;5.78;;;5.90;71.00;;;;;;5086444;28;20039;-67
2021/01/10 11:51:36;;;;;;;9.85;5.75;;;6.50;68.60;;;;;;5083122;28;20016;-68
2021/01/10 11:54:01;;;;;;;7.95;5.07;;;6.80;67.60;;;;;;5084370;28;20021;-68
2021/01/10 11:56:27;;;;;;;9.32;5.40;;;6.80;67.00;;;;;;5080546;28;20018;-68
2021/01/10 11:58:53;;;;;;;8.25;5.00;;;6.80;66.20;;;;;;5085893;28;20132;-69
2021/01/10 12:01:18;;;;;;;16.92;8.15;;;6.50;65.60;;;;;;5081743;28;20035;-66
2021/01/10 12:03:44;;;;;;;9.07;5.22;;;5.70;67.80;;;;;;5077976;28;20324;-67
2021/01/10 12:06:19;;;;;;;9.13;5.90;;;5.70;68.70;;;;;;5083678;28;20047;-68
2021/01/10 12:08:45;;;;;;;19.75;8.32;;;5.70;68.60;;;;;;5086676;28;20020;-68
2021/01/10 12:11:15;;;;;;;11.45;6.05;;;4.90;69.20;;;;;;5093056;28;20016;-67
2021/01/10 12:13:41;;;;;;;10.50;6.45;;;4.10;71.50;;;;;;5083058;28;20024;-68
2021/01/10 12:16:13;;;;;;;12.95;7.65;;;3.40;73.40;;;;;;5078711;28;20023;-68
2021/01/10 12:18:42;;;;;;;14.40;6.20;;;3.50;74.30;;;;;;5089814;28;20051;-68
2021/01/10 12:21:09;;;;;;;14.45;7.70;;;4.30;73.70;;;;;;5084205;28;20060;-68
2021/01/10 12:23:38;;;;;;;14.93;7.68;;;4.50;72.10;;;;;;5094154;28;20421;-68
2021/01/10 12:26:08;;;;;;;10.43;6.38;;;4.70;72.00;;;;;;5086198;28;20028;-67
2021/01/10 12:28:34;;;;;;;11.30;6.43;;;5.00;71.20;;;;;;5084005;28;20028;-68
2021/01/10 12:30:59;;;;;;;15.63;8.02;;;4.90;70.80;;;;;;5079140;28;20313;-68
2021/01/10 12:33:25;;;;;;;17.63;9.05;;;5.10;70.40;;;;;;5080321;28;20317;-68
2021/01/10 12:35:51;;;;;;;8.68;5.20;;;5.10;70.20;;;;;;5081749;28;20028;-68
2021/01/10 12:38:16;;;;;;;8.73;5.50;;;5.50;69.70;;;;;;5083069;28;20024;-68
2021/01/10 12:40:42;;;;;;;9.52;5.78;;;5.70;69.30;;;;;;5083643;28;20035;-68
2021/01/10 12:43:07;;;;;;;12.18;5.97;;;5.70;67.30;;;;;;5088944;28;20051;-69
2021/01/10 12:45:33;;;;;;;13.00;6.35;;;5.20;69.60;;;;;;5089389;28;20321;-67
2021/01/10 12:47:59;;;;;;;18.17;9.65;;;4.70;70.00;;;;;;5085386;28;20075;-68
2021/01/10 12:50:24;;;;;;;11.98;6.65;;;4.40;70.30;;;;;;5077207;28;20024;-68